sensor_id;sensor_type;location;lat;lon;timestamp;P1;durP1;ratioP1;P2;durP2;ratioP2
58208;SDS011;44006;52.028;4.696;2023-05-20T00:01:19;8.13;;;4.37;;
58208;SDS011;44006;52.028;4.696;2023-05-20T00:03:44;12.10;;;4.03;;
58208;SDS011;44006;52.028;4.696;2023-05-20T00:06:11;8.82;;;4.05;;
58208;SDS011;44006;52.028;4.696;2023-05-20T00:08:36;10.48;;;4.80;;
58208;SDS011;44006;52.028;4.696;2023-05-20T00:11:01;13.38;;;4.57;;
58208;SDS011;44006;52.028;4.696;2023-05-20T00:13:26;9.27;;;4.00;;
58208;SDS011;44006;52.028;4.696;2023-05-20T00:15:52;9.60;;;4.07;;
58208;SDS011;44006;52.028;4.696;2023-05-20T00:18:17;12.60;;;4.28;;
58208;SDS011;44006;52.028;4.696;2023-05-20T00:20:43;9.20;;;3.83;;
58208;SDS011;44006;52.028;4.696;2023-05-20T00:23:08;10.43;;;4.10;;
58208;SDS011;44006;52.028;4.696;2023-05-20T00:25:33;9.70;;;4.20;;
58208;SDS011;44006;52.028;4.696;2023-05-20T00:27:58;9.27;;;3.90;;
58208;SDS011;44006;52.028;4.696;2023-05-20T00:30:23;11.33;;;4.73;;
58208;SDS011;44006;52.028;4.696;2023-05-20T00:32:48;9.60;;;3.87;;
58208;SDS011;44006;52.028;4.696;2023-05-20T00:35:14;15.43;;;5.22;;
58208;SDS011;44006;52.028;4.696;2023-05-20T00:37:39;9.70;;;4.03;;
58208;SDS011;44006;52.028;4.696;2023-05-20T00:40:05;12.65;;;4.35;;
58208;SDS011;44006;52.028;4.696;2023-05-20T00:42:30;10.15;;;4.53;;
58208;SDS011;44006;52.028;4.696;2023-05-20T00:44:55;14.80;;;4.53;;
58208;SDS011;44006;52.028;4.696;2023-05-20T00:47:38;9.73;;;4.67;;
58208;SDS011;44006;52.028;4.696;2023-05-20T00:50:04;9.23;;;4.15;;
58208;SDS011;44006;52.028;4.696;2023-05-20T00:52:30;10.73;;;4.18;;
58208;SDS011;44006;52.028;4.696;2023-05-20T00:54:55;11.38;;;4.80;;
58208;SDS011;44006;52.028;4.696;2023-05-20T00:57:21;11.18;;;4.15;;
58208;SDS011;44006;52.028;4.696;2023-05-20T00:59:46;10.17;;;4.13;;
58208;SDS011;44006;52.028;4.696;2023-05-20T01:02:12;13.60;;;4.40;;
58208;SDS011;44006;52.028;4.696;2023-05-20T01:04:38;12.05;;;4.80;;
58208;SDS011;44006;52.028;4.696;2023-05-20T01:07:03;11.10;;;4.35;;
58208;SDS011;44006;52.028;4.696;2023-05-20T01:09:29;12.48;;;4.57;;
58208;SDS011;44006;52.028;4.696;2023-05-20T01:14:36;6.60;;;3.80;;
58208;SDS011;44006;52.028;4.696;2023-05-20T01:17:03;9.05;;;4.60;;
58208;SDS011;44006;52.028;4.696;2023-05-20T01:19:37;12.00;;;5.15;;
58208;SDS011;44006;52.028;4.696;2023-05-20T01:22:04;9.75;;;4.38;;
58208;SDS011;44006;52.028;4.696;2023-05-20T01:24:30;9.77;;;4.97;;
58208;SDS011;44006;52.028;4.696;2023-05-20T01:26:55;13.57;;;4.72;;
58208;SDS011;44006;52.028;4.696;2023-05-20T01:29:22;9.93;;;4.72;;
58208;SDS011;44006;52.028;4.696;2023-05-20T01:31:47;9.68;;;5.07;;
58208;SDS011;44006;52.028;4.696;2023-05-20T01:34:12;10.77;;;5.13;;
58208;SDS011;44006;52.028;4.696;2023-05-20T01:36:38;11.57;;;4.70;;
58208;SDS011;44006;52.028;4.696;2023-05-20T01:39:04;11.07;;;5.20;;
58208;SDS011;44006;52.028;4.696;2023-05-20T01:41:30;15.52;;;5.40;;
58208;SDS011;44006;52.028;4.696;2023-05-20T01:43:55;13.38;;;5.28;;
58208;SDS011;44006;52.028;4.696;2023-05-20T01:46:21;15.27;;;5.13;;
58208;SDS011;44006;52.028;4.696;2023-05-20T01:48:46;8.30;;;4.68;;
58208;SDS011;44006;52.028;4.696;2023-05-20T01:51:11;9.38;;;4.85;;
58208;SDS011;44006;52.028;4.696;2023-05-20T01:53:37;12.70;;;5.15;;
58208;SDS011;44006;52.028;4.696;2023-05-20T01:56:04;9.07;;;4.97;;
58208;SDS011;44006;52.028;4.696;2023-05-20T01:58:29;9.73;;;5.63;;
58208;SDS011;44006;52.028;4.696;2023-05-20T02:00:54;12.20;;;5.53;;
58208;SDS011;44006;52.028;4.696;2023-05-20T02:03:19;11.65;;;5.28;;
58208;SDS011;44006;52.028;4.696;2023-05-20T02:05:45;9.17;;;5.10;;
58208;SDS011;44006;52.028;4.696;2023-05-20T02:08:10;12.73;;;5.53;;
58208;SDS011;44006;52.028;4.696;2023-05-20T02:10:35;14.00;;;5.85;;
58208;SDS011;44006;52.028;4.696;2023-05-20T02:13:00;10.18;;;5.40;;
58208;SDS011;44006;52.028;4.696;2023-05-20T02:15:26;9.18;;;5.03;;
58208;SDS011;44006;52.028;4.696;2023-05-20T02:17:51;14.25;;;5.93;;
58208;SDS011;44006;52.028;4.696;2023-05-20T02:20:16;10.13;;;5.28;;
58208;SDS011;44006;52.028;4.696;2023-05-20T02:22:42;8.98;;;4.97;;
58208;SDS011;44006;52.028;4.696;2023-05-20T02:25:07;10.73;;;5.83;;
58208;SDS011;44006;52.028;4.696;2023-05-20T02:27:33;12.23;;;5.97;;
58208;SDS011;44006;52.028;4.696;2023-05-20T02:29:58;10.52;;;5.70;;
58208;SDS011;44006;52.028;4.696;2023-05-20T02:32:24;14.25;;;5.80;;
58208;SDS011;44006;52.028;4.696;2023-05-20T02:34:52;11.35;;;5.65;;
58208;SDS011;44006;52.028;4.696;2023-05-20T02:37:18;11.90;;;5.88;;
58208;SDS011;44006;52.028;4.696;2023-05-20T02:39:43;10.02;;;5.57;;
58208;SDS011;44006;52.028;4.696;2023-05-20T02:42:08;10.05;;;6.00;;
58208;SDS011;44006;52.028;4.696;2023-05-20T02:44:33;12.60;;;5.47;;
58208;SDS011;44006;52.028;4.696;2023-05-20T02:46:58;12.80;;;5.55;;
58208;SDS011;44006;52.028;4.696;2023-05-20T02:49:25;11.93;;;5.53;;
58208;SDS011;44006;52.028;4.696;2023-05-20T02:51:50;14.38;;;5.53;;
58208;SDS011;44006;52.028;4.696;2023-05-20T02:54:15;12.43;;;5.77;;
58208;SDS011;44006;52.028;4.696;2023-05-20T02:56:40;17.33;;;5.67;;
58208;SDS011;44006;52.028;4.696;2023-05-20T02:59:05;11.43;;;6.00;;
58208;SDS011;44006;52.028;4.696;2023-05-20T03:01:31;10.13;;;6.30;;
58208;SDS011;44006;52.028;4.696;2023-05-20T03:03:59;11.23;;;5.85;;
58208;SDS011;44006;52.028;4.696;2023-05-20T03:06:24;11.18;;;5.30;;
58208;SDS011;44006;52.028;4.696;2023-05-20T03:08:50;13.27;;;5.97;;
58208;SDS011;44006;52.028;4.696;2023-05-20T03:11:15;11.13;;;5.80;;
58208;SDS011;44006;52.028;4.696;2023-05-20T03:13:40;12.77;;;6.00;;
58208;SDS011;44006;52.028;4.696;2023-05-20T03:16:06;13.48;;;6.40;;
58208;SDS011;44006;52.028;4.696;2023-05-20T03:18:31;15.00;;;6.28;;
58208;SDS011;44006;52.028;4.696;2023-05-20T03:20:57;10.57;;;5.78;;
58208;SDS011;44006;52.028;4.696;2023-05-20T03:23:22;15.50;;;6.63;;
58208;SDS011;44006;52.028;4.696;2023-05-20T03:25:47;12.68;;;6.30;;
58208;SDS011;44006;52.028;4.696;2023-05-20T03:28:12;10.05;;;5.43;;
58208;SDS011;44006;52.028;4.696;2023-05-20T03:30:38;15.70;;;6.10;;
58208;SDS011;44006;52.028;4.696;2023-05-20T03:33:03;14.98;;;6.30;;
58208;SDS011;44006;52.028;4.696;2023-05-20T03:35:29;14.68;;;6.55;;
58208;SDS011;44006;52.028;4.696;2023-05-20T03:37:54;12.53;;;6.30;;
58208;SDS011;44006;52.028;4.696;2023-05-20T03:40:20;10.50;;;6.00;;
58208;SDS011;44006;52.028;4.696;2023-05-20T03:42:45;12.13;;;5.90;;
58208;SDS011;44006;52.028;4.696;2023-05-20T03:45:11;10.65;;;6.00;;
58208;SDS011;44006;52.028;4.696;2023-05-20T03:47:36;14.10;;;6.27;;
58208;SDS011;44006;52.028;4.696;2023-05-20T03:50:01;10.43;;;5.63;;
58208;SDS011;44006;52.028;4.696;2023-05-20T03:52:26;11.50;;;5.32;;
58208;SDS011;44006;52.028;4.696;2023-05-20T03:54:52;9.43;;;5.57;;
58208;SDS011;44006;52.028;4.696;2023-05-20T03:57:17;13.32;;;5.45;;
58208;SDS011;44006;52.028;4.696;2023-05-20T03:59:43;11.63;;;6.45;;
58208;SDS011;44006;52.028;4.696;2023-05-20T04:02:08;10.02;;;5.65;;
58208;SDS011;44006;52.028;4.696;2023-05-20T04:04:34;9.57;;;5.50;;
58208;SDS011;44006;52.028;4.696;2023-05-20T04:07:00;11.05;;;5.43;;
58208;SDS011;44006;52.028;4.696;2023-05-20T04:09:25;9.57;;;5.50;;
58208;SDS011;44006;52.028;4.696;2023-05-20T04:11:50;13.20;;;5.70;;
58208;SDS011;44006;52.028;4.696;2023-05-20T04:14:16;13.55;;;5.95;;
58208;SDS011;44006;52.028;4.696;2023-05-20T04:16:41;14.05;;;5.88;;
58208;SDS011;44006;52.028;4.696;2023-05-20T04:19:07;13.55;;;5.82;;
58208;SDS011;44006;52.028;4.696;2023-05-20T04:21:32;8.20;;;5.20;;
58208;SDS011;44006;52.028;4.696;2023-05-20T04:24:00;11.05;;;5.50;;
58208;SDS011;44006;52.028;4.696;2023-05-20T04:26:25;11.32;;;5.65;;
58208;SDS011;44006;52.028;4.696;2023-05-20T04:28:50;11.15;;;5.90;;
58208;SDS011;44006;52.028;4.696;2023-05-20T04:31:16;11.27;;;5.75;;
58208;SDS011;44006;52.028;4.696;2023-05-20T04:33:41;15.35;;;6.20;;
58208;SDS011;44006;52.028;4.696;2023-05-20T04:36:08;11.48;;;5.28;;
58208;SDS011;44006;52.028;4.696;2023-05-20T04:38:34;12.95;;;5.65;;
58208;SDS011;44006;52.028;4.696;2023-05-20T04:41:00;11.70;;;5.10;;
58208;SDS011;44006;52.028;4.696;2023-05-20T04:43:26;10.00;;;5.28;;
58208;SDS011;44006;52.028;4.696;2023-05-20T04:45:53;11.05;;;4.68;;
58208;SDS011;44006;52.028;4.696;2023-05-20T04:48:19;12.65;;;5.53;;
58208;SDS011;44006;52.028;4.696;2023-05-20T04:50:46;9.30;;;5.40;;
58208;SDS011;44006;52.028;4.696;2023-05-20T04:53:12;10.20;;;5.22;;
58208;SDS011;44006;52.028;4.696;2023-05-20T04:55:37;8.20;;;4.50;;
58208;SDS011;44006;52.028;4.696;2023-05-20T04:58:03;8.38;;;5.50;;
58208;SDS011;44006;52.028;4.696;2023-05-20T05:00:28;10.80;;;4.68;;
58208;SDS011;44006;52.028;4.696;2023-05-20T05:02:55;11.90;;;4.93;;
58208;SDS011;44006;52.028;4.696;2023-05-20T05:05:20;11.60;;;5.55;;
58208;SDS011;44006;52.028;4.696;2023-05-20T05:07:45;11.40;;;5.32;;
58208;SDS011;44006;52.028;4.696;2023-05-20T05:10:11;10.47;;;4.97;;
58208;SDS011;44006;52.028;4.696;2023-05-20T05:12:36;12.52;;;5.13;;
58208;SDS011;44006;52.028;4.696;2023-05-20T05:15:01;13.23;;;5.68;;
58208;SDS011;44006;52.028;4.696;2023-05-20T05:17:27;16.05;;;5.35;;
58208;SDS011;44006;52.028;4.696;2023-05-20T05:19:52;9.60;;;5.15;;
58208;SDS011;44006;52.028;4.696;2023-05-20T05:22:17;9.98;;;5.00;;
58208;SDS011;44006;52.028;4.696;2023-05-20T05:24:43;12.47;;;5.07;;
58208;SDS011;44006;52.028;4.696;2023-05-20T05:27:08;11.77;;;4.80;;
58208;SDS011;44006;52.028;4.696;2023-05-20T05:29:33;10.50;;;4.72;;
58208;SDS011;44006;52.028;4.696;2023-05-20T05:31:59;8.23;;;4.47;;
58208;SDS011;44006;52.028;4.696;2023-05-20T05:34:25;10.57;;;4.80;;
58208;SDS011;44006;52.028;4.696;2023-05-20T05:36:50;9.10;;;4.55;;
58208;SDS011;44006;52.028;4.696;2023-05-20T05:39:15;11.82;;;5.55;;
58208;SDS011;44006;52.028;4.696;2023-05-20T05:41:40;9.05;;;5.18;;
58208;SDS011;44006;52.028;4.696;2023-05-20T05:44:06;11.18;;;5.25;;
58208;SDS011;44006;52.028;4.696;2023-05-20T05:46:31;9.68;;;4.85;;
58208;SDS011;44006;52.028;4.696;2023-05-20T05:48:57;8.35;;;4.60;;
58208;SDS011;44006;52.028;4.696;2023-05-20T05:51:22;10.98;;;5.03;;
58208;SDS011;44006;52.028;4.696;2023-05-20T05:53:49;13.05;;;5.72;;
58208;SDS011;44006;52.028;4.696;2023-05-20T05:56:14;9.88;;;5.28;;
58208;SDS011;44006;52.028;4.696;2023-05-20T05:58:40;7.32;;;4.50;;
58208;SDS011;44006;52.028;4.696;2023-05-20T06:01:05;12.20;;;4.90;;
58208;SDS011;44006;52.028;4.696;2023-05-20T06:03:30;12.40;;;4.60;;
58208;SDS011;44006;52.028;4.696;2023-05-20T06:05:56;11.10;;;5.15;;
58208;SDS011;44006;52.028;4.696;2023-05-20T06:08:22;8.88;;;4.72;;
58208;SDS011;44006;52.028;4.696;2023-05-20T06:10:47;11.25;;;4.80;;
58208;SDS011;44006;52.028;4.696;2023-05-20T06:13:13;12.75;;;4.68;;
58208;SDS011;44006;52.028;4.696;2023-05-20T06:15:38;8.37;;;4.27;;
58208;SDS011;44006;52.028;4.696;2023-05-20T06:18:04;7.95;;;4.60;;
58208;SDS011;44006;52.028;4.696;2023-05-20T06:20:29;7.47;;;4.50;;
58208;SDS011;44006;52.028;4.696;2023-05-20T06:22:54;7.50;;;4.20;;
58208;SDS011;44006;52.028;4.696;2023-05-20T06:25:19;10.35;;;4.53;;
58208;SDS011;44006;52.028;4.696;2023-05-20T06:27:46;10.18;;;5.40;;
58208;SDS011;44006;52.028;4.696;2023-05-20T06:30:12;7.70;;;4.20;;
58208;SDS011;44006;52.028;4.696;2023-05-20T06:32:37;7.00;;;4.43;;
58208;SDS011;44006;52.028;4.696;2023-05-20T06:35:02;6.80;;;4.10;;
58208;SDS011;44006;52.028;4.696;2023-05-20T06:37:27;6.53;;;4.20;;
58208;SDS011;44006;52.028;4.696;2023-05-20T06:39:53;10.85;;;4.65;;
58208;SDS011;44006;52.028;4.696;2023-05-20T06:42:21;8.40;;;4.18;;
58208;SDS011;44006;52.028;4.696;2023-05-20T06:44:46;9.65;;;4.40;;
58208;SDS011;44006;52.028;4.696;2023-05-20T06:47:15;6.85;;;4.30;;
58208;SDS011;44006;52.028;4.696;2023-05-20T06:49:44;7.13;;;4.25;;
58208;SDS011;44006;52.028;4.696;2023-05-20T06:52:09;9.50;;;4.68;;
58208;SDS011;44006;52.028;4.696;2023-05-20T06:54:35;8.18;;;4.28;;
58208;SDS011;44006;52.028;4.696;2023-05-20T06:57:04;10.38;;;4.40;;
58208;SDS011;44006;52.028;4.696;2023-05-20T06:59:29;10.35;;;4.13;;
58208;SDS011;44006;52.028;4.696;2023-05-20T07:01:55;9.97;;;4.70;;
58208;SDS011;44006;52.028;4.696;2023-05-20T07:04:20;7.33;;;4.60;;
58208;SDS011;44006;52.028;4.696;2023-05-20T07:06:45;8.73;;;4.77;;
58208;SDS011;44006;52.028;4.696;2023-05-20T07:09:10;8.83;;;4.10;;
58208;SDS011;44006;52.028;4.696;2023-05-20T07:11:35;6.67;;;3.93;;
58208;SDS011;44006;52.028;4.696;2023-05-20T07:14:01;8.40;;;4.20;;
58208;SDS011;44006;52.028;4.696;2023-05-20T07:16:26;6.77;;;4.23;;
58208;SDS011;44006;52.028;4.696;2023-05-20T07:18:51;8.88;;;4.35;;
58208;SDS011;44006;52.028;4.696;2023-05-20T07:21:16;5.97;;;3.83;;
58208;SDS011;44006;52.028;4.696;2023-05-20T07:23:41;10.10;;;4.45;;
58208;SDS011;44006;52.028;4.696;2023-05-20T07:26:07;9.17;;;4.03;;
58208;SDS011;44006;52.028;4.696;2023-05-20T07:28:32;8.00;;;4.40;;
58208;SDS011;44006;52.028;4.696;2023-05-20T07:30:57;10.05;;;4.30;;
58208;SDS011;44006;52.028;4.696;2023-05-20T07:33:25;8.00;;;3.75;;
58208;SDS011;44006;52.028;4.696;2023-05-20T07:35:50;8.60;;;3.90;;
58208;SDS011;44006;52.028;4.696;2023-05-20T07:38:18;7.05;;;3.65;;
58208;SDS011;44006;52.028;4.696;2023-05-20T07:40:43;9.15;;;3.67;;
58208;SDS011;44006;52.028;4.696;2023-05-20T07:43:09;13.90;;;4.13;;
58208;SDS011;44006;52.028;4.696;2023-05-20T07:45:34;9.35;;;4.53;;
58208;SDS011;44006;52.028;4.696;2023-05-20T07:48:00;6.93;;;3.83;;
58208;SDS011;44006;52.028;4.696;2023-05-20T07:50:26;6.85;;;4.00;;
58208;SDS011;44006;52.028;4.696;2023-05-20T07:52:51;6.68;;;3.80;;
58208;SDS011;44006;52.028;4.696;2023-05-20T07:55:16;8.27;;;4.00;;
58208;SDS011;44006;52.028;4.696;2023-05-20T07:57:42;7.13;;;3.60;;
58208;SDS011;44006;52.028;4.696;2023-05-20T08:00:07;7.70;;;3.67;;
58208;SDS011;44006;52.028;4.696;2023-05-20T08:02:34;7.85;;;3.35;;
58208;SDS011;44006;52.028;4.696;2023-05-20T08:04:59;6.50;;;3.25;;
58208;SDS011;44006;52.028;4.696;2023-05-20T08:07:24;7.72;;;3.55;;
58208;SDS011;44006;52.028;4.696;2023-05-20T08:09:50;8.02;;;3.85;;
58208;SDS011;44006;52.028;4.696;2023-05-20T08:12:15;7.05;;;3.90;;
58208;SDS011;44006;52.028;4.696;2023-05-20T08:14:40;8.80;;;3.60;;
58208;SDS011;44006;52.028;4.696;2023-05-20T08:17:05;7.18;;;3.45;;
58208;SDS011;44006;52.028;4.696;2023-05-20T08:19:31;8.63;;;4.00;;
58208;SDS011;44006;52.028;4.696;2023-05-20T08:21:56;8.17;;;3.70;;
58208;SDS011;44006;52.028;4.696;2023-05-20T08:24:21;8.70;;;4.00;;
58208;SDS011;44006;52.028;4.696;2023-05-20T08:26:47;7.20;;;3.65;;
58208;SDS011;44006;52.028;4.696;2023-05-20T08:29:12;8.88;;;3.67;;
58208;SDS011;44006;52.028;4.696;2023-05-20T08:31:38;6.37;;;3.47;;
58208;SDS011;44006;52.028;4.696;2023-05-20T08:34:03;7.33;;;3.47;;
58208;SDS011;44006;52.028;4.696;2023-05-20T08:36:28;6.88;;;3.20;;
58208;SDS011;44006;52.028;4.696;2023-05-20T08:38:53;7.75;;;3.30;;
58208;SDS011;44006;52.028;4.696;2023-05-20T08:41:19;8.57;;;3.15;;
58208;SDS011;44006;52.028;4.696;2023-05-20T08:43:46;5.57;;;3.03;;
58208;SDS011;44006;52.028;4.696;2023-05-20T08:46:12;5.72;;;3.38;;
58208;SDS011;44006;52.028;4.696;2023-05-20T08:48:37;5.88;;;2.72;;
58208;SDS011;44006;52.028;4.696;2023-05-20T08:51:03;6.35;;;2.60;;
58208;SDS011;44006;52.028;4.696;2023-05-20T08:53:29;8.45;;;3.35;;
58208;SDS011;44006;52.028;4.696;2023-05-20T08:55:55;6.00;;;3.10;;
58208;SDS011;44006;52.028;4.696;2023-05-20T08:58:22;5.80;;;2.80;;
58208;SDS011;44006;52.028;4.696;2023-05-20T09:00:47;5.90;;;2.70;;
58208;SDS011;44006;52.028;4.696;2023-05-20T09:03:12;7.25;;;2.70;;
58208;SDS011;44006;52.028;4.696;2023-05-20T09:05:38;4.28;;;2.90;;
58208;SDS011;44006;52.028;4.696;2023-05-20T09:08:03;5.63;;;2.60;;
58208;SDS011;44006;52.028;4.696;2023-05-20T09:10:30;6.35;;;2.45;;
58208;SDS011;44006;52.028;4.696;2023-05-20T09:12:56;8.53;;;2.10;;
58208;SDS011;44006;52.028;4.696;2023-05-20T09:15:21;4.45;;;2.15;;
58208;SDS011;44006;52.028;4.696;2023-05-20T09:17:48;6.22;;;2.33;;
58208;SDS011;44006;52.028;4.696;2023-05-20T09:20:13;4.13;;;1.98;;
58208;SDS011;44006;52.028;4.696;2023-05-20T09:22:39;3.58;;;1.67;;
58208;SDS011;44006;52.028;4.696;2023-05-20T09:25:05;3.63;;;1.92;;
58208;SDS011;44006;52.028;4.696;2023-05-20T09:27:30;4.65;;;1.80;;
58208;SDS011;44006;52.028;4.696;2023-05-20T09:29:55;5.15;;;2.05;;
58208;SDS011;44006;52.028;4.696;2023-05-20T09:32:21;6.43;;;1.92;;
58208;SDS011;44006;52.028;4.696;2023-05-20T09:34:52;4.07;;;1.70;;
58208;SDS011;44006;52.028;4.696;2023-05-20T09:37:17;6.97;;;1.83;;
58208;SDS011;44006;52.028;4.696;2023-05-20T09:39:55;4.03;;;1.77;;
58208;SDS011;44006;52.028;4.696;2023-05-20T09:42:27;5.70;;;1.90;;
58208;SDS011;44006;52.028;4.696;2023-05-20T09:44:53;3.35;;;1.67;;
58208;SDS011;44006;52.028;4.696;2023-05-20T09:47:19;3.95;;;1.83;;
58208;SDS011;44006;52.028;4.696;2023-05-20T09:49:44;3.63;;;1.73;;
58208;SDS011;44006;52.028;4.696;2023-05-20T09:52:11;6.85;;;1.98;;
58208;SDS011;44006;52.028;4.696;2023-05-20T09:54:36;5.38;;;1.80;;
58208;SDS011;44006;52.028;4.696;2023-05-20T09:57:02;4.88;;;2.00;;
58208;SDS011;44006;52.028;4.696;2023-05-20T09:59:29;5.25;;;1.70;;
58208;SDS011;44006;52.028;4.696;2023-05-20T10:01:55;5.10;;;1.92;;
58208;SDS011;44006;52.028;4.696;2023-05-20T10:04:20;3.73;;;1.80;;
58208;SDS011;44006;52.028;4.696;2023-05-20T10:19:15;4.15;;;1.67;;
58208;SDS011;44006;52.028;4.696;2023-05-20T10:21:55;3.72;;;1.58;;
58208;SDS011;44006;52.028;4.696;2023-05-20T10:24:27;5.18;;;1.88;;
58208;SDS011;44006;52.028;4.696;2023-05-20T10:26:53;4.10;;;1.63;;
58208;SDS011;44006;52.028;4.696;2023-05-20T10:29:19;3.63;;;1.52;;
58208;SDS011;44006;52.028;4.696;2023-05-20T10:31:50;5.00;;;1.85;;
58208;SDS011;44006;52.028;4.696;2023-05-20T10:34:16;3.85;;;1.85;;
58208;SDS011;44006;52.028;4.696;2023-05-20T10:36:44;3.53;;;1.50;;
58208;SDS011;44006;52.028;4.696;2023-05-20T10:39:13;3.60;;;1.50;;
58208;SDS011;44006;52.028;4.696;2023-05-20T10:41:39;4.38;;;1.58;;
58208;SDS011;44006;52.028;4.696;2023-05-20T10:44:05;3.63;;;1.57;;
58208;SDS011;44006;52.028;4.696;2023-05-20T10:46:30;3.40;;;1.65;;
58208;SDS011;44006;52.028;4.696;2023-05-20T10:48:56;4.40;;;1.88;;
58208;SDS011;44006;52.028;4.696;2023-05-20T10:51:21;4.57;;;1.80;;
58208;SDS011;44006;52.028;4.696;2023-05-20T10:53:47;4.20;;;1.85;;
58208;SDS011;44006;52.028;4.696;2023-05-20T10:56:19;4.90;;;1.80;;
58208;SDS011;44006;52.028;4.696;2023-05-20T10:58:45;4.65;;;1.95;;
58208;SDS011;44006;52.028;4.696;2023-05-20T11:01:11;4.80;;;1.73;;
58208;SDS011;44006;52.028;4.696;2023-05-20T11:03:38;6.45;;;2.17;;
58208;SDS011;44006;52.028;4.696;2023-05-20T11:06:15;9.43;;;3.20;;
58208;SDS011;44006;52.028;4.696;2023-05-20T11:08:41;5.68;;;2.65;;
58208;SDS011;44006;52.028;4.696;2023-05-20T11:11:06;4.55;;;2.13;;
58208;SDS011;44006;52.028;4.696;2023-05-20T11:13:32;5.78;;;2.17;;
58208;SDS011;44006;52.028;4.696;2023-05-20T11:15:57;4.73;;;2.17;;
58208;SDS011;44006;52.028;4.696;2023-05-20T11:18:23;5.45;;;2.50;;
58208;SDS011;44006;52.028;4.696;2023-05-20T11:20:50;7.63;;;2.75;;
58208;SDS011;44006;52.028;4.696;2023-05-20T11:23:17;7.38;;;2.42;;
58208;SDS011;44006;52.028;4.696;2023-05-20T11:25:43;7.28;;;2.10;;
58208;SDS011;44006;52.028;4.696;2023-05-20T11:28:12;4.45;;;2.10;;
58208;SDS011;44006;52.028;4.696;2023-05-20T11:30:38;6.75;;;2.50;;
58208;SDS011;44006;52.028;4.696;2023-05-20T11:33:03;5.05;;;2.10;;
58208;SDS011;44006;52.028;4.696;2023-05-20T11:35:31;3.85;;;2.15;;
58208;SDS011;44006;52.028;4.696;2023-05-20T11:38:00;3.67;;;1.83;;
58208;SDS011;44006;52.028;4.696;2023-05-20T11:40:25;3.33;;;1.98;;
58208;SDS011;44006;52.028;4.696;2023-05-20T11:42:58;3.47;;;1.90;;
58208;SDS011;44006;52.028;4.696;2023-05-20T11:45:23;3.50;;;1.70;;
58208;SDS011;44006;52.028;4.696;2023-05-20T11:48:01;7.15;;;2.03;;
58208;SDS011;44006;52.028;4.696;2023-05-20T11:50:27;5.05;;;2.00;;
58208;SDS011;44006;52.028;4.696;2023-05-20T11:52:58;3.88;;;2.05;;
58208;SDS011;44006;52.028;4.696;2023-05-20T11:55:25;4.72;;;1.80;;
58208;SDS011;44006;52.028;4.696;2023-05-20T11:57:50;4.47;;;1.88;;
58208;SDS011;44006;52.028;4.696;2023-05-20T12:00:16;4.13;;;2.00;;
58208;SDS011;44006;52.028;4.696;2023-05-20T12:02:41;3.53;;;1.88;;
58208;SDS011;44006;52.028;4.696;2023-05-20T12:05:07;6.73;;;2.50;;
58208;SDS011;44006;52.028;4.696;2023-05-20T12:07:32;4.72;;;1.80;;
58208;SDS011;44006;52.028;4.696;2023-05-20T12:09:57;2.97;;;1.60;;
58208;SDS011;44006;52.028;4.696;2023-05-20T12:12:22;2.70;;;1.70;;
58208;SDS011;44006;52.028;4.696;2023-05-20T12:14:49;3.35;;;2.00;;
58208;SDS011;44006;52.028;4.696;2023-05-20T12:17:14;4.13;;;2.20;;
58208;SDS011;44006;52.028;4.696;2023-05-20T12:19:39;7.10;;;2.00;;
58208;SDS011;44006;52.028;4.696;2023-05-20T12:22:04;4.32;;;1.55;;
58208;SDS011;44006;52.028;4.696;2023-05-20T12:24:30;4.43;;;1.85;;
58208;SDS011;44006;52.028;4.696;2023-05-20T12:26:55;5.57;;;1.75;;
58208;SDS011;44006;52.028;4.696;2023-05-20T12:29:21;6.38;;;2.10;;
58208;SDS011;44006;52.028;4.696;2023-05-20T12:31:46;2.65;;;1.80;;
58208;SDS011;44006;52.028;4.696;2023-05-20T12:34:12;4.90;;;2.00;;
58208;SDS011;44006;52.028;4.696;2023-05-20T12:36:37;5.13;;;1.40;;
58208;SDS011;44006;52.028;4.696;2023-05-20T12:39:02;5.90;;;1.90;;
58208;SDS011;44006;52.028;4.696;2023-05-20T12:41:27;5.45;;;1.92;;
58208;SDS011;44006;52.028;4.696;2023-05-20T12:43:52;4.13;;;1.63;;
58208;SDS011;44006;52.028;4.696;2023-05-20T12:46:18;5.40;;;2.05;;
58208;SDS011;44006;52.028;4.696;2023-05-20T12:48:43;3.90;;;1.97;;
58208;SDS011;44006;52.028;4.696;2023-05-20T12:51:08;4.50;;;1.57;;
58208;SDS011;44006;52.028;4.696;2023-05-20T12:53:33;4.30;;;1.70;;
58208;SDS011;44006;52.028;4.696;2023-05-20T12:55:58;7.77;;;2.07;;
58208;SDS011;44006;52.028;4.696;2023-05-20T12:58:24;4.93;;;1.80;;
58208;SDS011;44006;52.028;4.696;2023-05-20T13:00:49;3.43;;;1.83;;
58208;SDS011;44006;52.028;4.696;2023-05-20T13:03:14;5.17;;;1.90;;
58208;SDS011;44006;52.028;4.696;2023-05-20T13:05:40;6.47;;;1.80;;
58208;SDS011;44006;52.028;4.696;2023-05-20T13:08:05;4.15;;;1.98;;
58208;SDS011;44006;52.028;4.696;2023-05-20T13:10:31;4.78;;;1.77;;
58208;SDS011;44006;52.028;4.696;2023-05-20T13:12:56;3.30;;;1.85;;
58208;SDS011;44006;52.028;4.696;2023-05-20T13:15:21;2.90;;;1.73;;
58208;SDS011;44006;52.028;4.696;2023-05-20T13:17:47;6.63;;;1.70;;
58208;SDS011;44006;52.028;4.696;2023-05-20T13:20:12;6.30;;;1.70;;
58208;SDS011;44006;52.028;4.696;2023-05-20T13:22:37;5.75;;;1.85;;
58208;SDS011;44006;52.028;4.696;2023-05-20T13:25:03;4.77;;;1.33;;
58208;SDS011;44006;52.028;4.696;2023-05-20T13:27:28;4.80;;;1.67;;
58208;SDS011;44006;52.028;4.696;2023-05-20T13:29:54;3.55;;;1.90;;
58208;SDS011;44006;52.028;4.696;2023-05-20T13:32:19;4.70;;;1.90;;
58208;SDS011;44006;52.028;4.696;2023-05-20T13:34:45;4.20;;;1.97;;
58208;SDS011;44006;52.028;4.696;2023-05-20T13:37:10;3.63;;;1.73;;
58208;SDS011;44006;52.028;4.696;2023-05-20T13:39:35;5.63;;;1.90;;
58208;SDS011;44006;52.028;4.696;2023-05-20T13:42:01;4.22;;;1.63;;
58208;SDS011;44006;52.028;4.696;2023-05-20T13:44:26;3.67;;;1.73;;
58208;SDS011;44006;52.028;4.696;2023-05-20T13:46:51;4.05;;;1.95;;
58208;SDS011;44006;52.028;4.696;2023-05-20T13:49:17;4.43;;;1.65;;
58208;SDS011;44006;52.028;4.696;2023-05-20T13:51:42;7.23;;;2.07;;
58208;SDS011;44006;52.028;4.696;2023-05-20T13:54:07;4.78;;;1.73;;
58208;SDS011;44006;52.028;4.696;2023-05-20T13:56:32;2.73;;;1.63;;
58208;SDS011;44006;52.028;4.696;2023-05-20T13:58:58;6.33;;;1.90;;
58208;SDS011;44006;52.028;4.696;2023-05-20T14:01:23;5.25;;;1.60;;
58208;SDS011;44006;52.028;4.696;2023-05-20T14:03:48;4.90;;;1.70;;
58208;SDS011;44006;52.028;4.696;2023-05-20T14:06:13;5.20;;;1.50;;
58208;SDS011;44006;52.028;4.696;2023-05-20T14:08:42;5.03;;;2.03;;
58208;SDS011;44006;52.028;4.696;2023-05-20T14:11:08;3.77;;;1.53;;
58208;SDS011;44006;52.028;4.696;2023-05-20T14:13:34;3.83;;;1.83;;
58208;SDS011;44006;52.028;4.696;2023-05-20T14:15:59;4.77;;;1.60;;
58208;SDS011;44006;52.028;4.696;2023-05-20T14:18:24;6.05;;;2.10;;
58208;SDS011;44006;52.028;4.696;2023-05-20T14:20:49;4.07;;;1.55;;
58208;SDS011;44006;52.028;4.696;2023-05-20T14:23:15;3.83;;;1.75;;
58208;SDS011;44006;52.028;4.696;2023-05-20T14:25:40;4.80;;;1.77;;
58208;SDS011;44006;52.028;4.696;2023-05-20T14:28:05;4.97;;;2.22;;
58208;SDS011;44006;52.028;4.696;2023-05-20T14:30:31;3.67;;;1.80;;
58208;SDS011;44006;52.028;4.696;2023-05-20T14:32:56;5.47;;;2.15;;
58208;SDS011;44006;52.028;4.696;2023-05-20T14:35:21;3.13;;;1.73;;
58208;SDS011;44006;52.028;4.696;2023-05-20T14:37:46;4.90;;;1.87;;
58208;SDS011;44006;52.028;4.696;2023-05-20T14:40:12;3.97;;;1.80;;
58208;SDS011;44006;52.028;4.696;2023-05-20T14:42:37;4.28;;;1.48;;
58208;SDS011;44006;52.028;4.696;2023-05-20T14:45:03;2.83;;;1.60;;
58208;SDS011;44006;52.028;4.696;2023-05-20T14:47:28;4.32;;;1.92;;
58208;SDS011;44006;52.028;4.696;2023-05-20T14:49:54;4.03;;;1.90;;